ADDS METAR Data INFO
IDs: Format: Raw Decoded Include TAF

Data at: 1007 UTC 22 May 2018

KBBW 220953Z AUTO 12007KT 10SM CLR 15/14 A2991 RMK AO2 SLP114 T01500139
KBBW 220853Z AUTO 12006KT 10SM CLR 16/14 A2992 RMK AO2 SLP116 T01560139 56012
KBBW 220753Z AUTO 12008KT 10SM FEW085 17/14 A2992 RMK AO2 SLP117 T01670144
KBBW 220653Z AUTO 12011KT 10SM BKN075 17/14 A2994 RMK AO2 SLP125 T01720144
KBBW 220553Z AUTO 11007KT 10SM CLR 17/14 A2995 RMK AO2 SLP128 T01670144 10228 20167 402280078 50001
KBBW 220453Z AUTO 11009KT 10SM FEW065 18/14 A2996 RMK AO2 SLP130 T01780144
KBBW 220353Z AUTO 12007KT 10SM SCT070 18/15 A2996 RMK AO2 SLP132 T01830150
KBBW 220253Z AUTO 12005KT 10SM SCT060 18/16 A2995 RMK AO2 SLP130 T01830156 53004
KBBW 220153Z AUTO 11004KT 10SM SCT050 19/16 A2994 RMK AO2 SLP129 T01940156
KBBW 220053Z AUTO 11009KT 10SM FEW050 SCT060 21/16 A2993 RMK AO2 SLP125 T02110156
KBBW 212353Z AUTO 14011KT 10SM BKN055 23/16 A2994 RMK AO2 SLP126 T02280156 10228 20200 56017
KBBW 212253Z AUTO 13009KT 10SM FEW048 BKN060 22/16 A2995 RMK AO2 SLP130 T02220156
KBBW 212153Z AUTO 16009KT 10SM FEW036 OVC045 22/14 A2996 RMK AO2 SLP138 T02170144
KBBW 212053Z AUTO 18012G18KT 10SM BKN038 21/14 A2999 RMK AO2 SLP148 T02110139 56014
KBBW 211953Z AUTO 18013KT 10SM OVC038 21/14 A3000 RMK AO2 SLP151 T02110139
KBBW 211853Z AUTO 19011G21KT 10SM FEW040 21/12 A3001 RMK AO2 SLP155 T02060122
KBBW 211753Z AUTO 20012KT 10SM CLR 20/12 A3003 RMK AO2 SLP163 T02000122 10206 20106 56008
KBBW 211653Z AUTO 16010KT 10SM CLR 19/13 A3004 RMK AO2 SLP163 T01940128
KBBW 211553Z AUTO 21003KT 10SM CLR 18/12 A3004 RMK AO2 SLP166 T01780117
KBBW 211453Z AUTO 13003KT 10SM CLR 15/12 A3006 RMK AO2 SLP173 T01500122 50002
KBBW 211406Z AUTO 20003KT 10SM SCT005 12/11 A3006 RMK AO2 T01220111
KBBW 211353Z AUTO 10SM BKN004 12/11 A3006 RMK AO2 SLP177 T01170111
KBBW 211253Z AUTO 26003KT 10SM OVC003 11/11 A3006 RMK AO2 SLP177 T01060106
KBBW 211153Z AUTO 00000KT 3SM BR OVC001 10/10 A3006 RMK AO2 SLP175 T01000100 10100 20078 58007
KBBW 211142Z AUTO 00000KT 2 1/2SM BR OVC001 10/10 A3006 RMK AO2 T01000100
KBBW 211119Z AUTO 23006KT 4SM BR OVC002 10/10 A3006 RMK AO2 T01000100
KBBW 211053Z AUTO 25007KT 2SM BR OVC002 10/09 A3007 RMK AO2 SLP178 T01000094
KBBW 211041Z AUTO 25008KT 1 1/2SM BR OVC002 10/09 A3007 RMK AO2 T01000094
KBBW 211031Z AUTO 27003KT 1SM BR VV002 09/09 A3007 RMK AO2 T00940089
KBBW 211008Z AUTO 23004KT 1 1/4SM BR OVC002 08/08 A3007 RMK AO2 T00830083
KBBW 210953Z AUTO 26005KT 1/2SM FG VV001 08/08 A3007 RMK AO2 SLP181 T00830078
KBBW 210916Z AUTO 23003KT 3/4SM BR VV001 08/08 A3008 RMK AO2 T00830078
KBBW 210906Z AUTO 00000KT 1 1/4SM BR OVC001 08/08 A3008 RMK AO2 T00780078
KBBW 210853Z AUTO 00000KT 1/2SM FG VV001 08/08 A3008 RMK AO2 SLP184 T00780078 55007
KBBW 210758Z AUTO 00000KT 3/4SM BR VV001 08/07 A3008 RMK AO2 T00780072
KBBW 210653Z AUTO 00000KT 9SM CLR 09/08 A3008 RMK AO2 SLP184 T00890083
KBBW 210553Z AUTO 00000KT 9SM CLR 09/09 A3010 RMK AO2 SLP192 T00890089 10144 20089 401720089 58006
KBBW 210453Z AUTO 00000KT 10SM OVC060 12/11 A3010 RMK AO2 SLP191 T01170106
KBBW 210353Z AUTO 00000KT 10SM OVC060 12/10 A3013 RMK AO2 SLP199 T01220100
KBBW 210253Z AUTO 00000KT 10SM OVC055 12/10 A3012 RMK AO2 SLP198 T01220100 53007
KBBW 210153Z AUTO 10003KT 10SM BKN035 OVC075 13/10 A3011 RMK AO2 SLP196 T01280100
KBBW 210053Z AUTO 08005KT 10SM BKN060 OVC075 14/11 A3010 RMK AO2 SLP191 T01390106
KBBW 202353Z AUTO 07007KT 10SM FEW026 OVC050 14/10 A3010 RMK AO2 SLP190 T01440100 10172 20139 58003
KBBW 202253Z AUTO 05006KT 10SM BKN036 OVC050 15/10 A3010 RMK AO2 SLP192 T01500100
KBBW 202238Z AUTO 04008KT 10SM SCT029 OVC036 15/09 A3011 RMK AO2 T01500094
KBBW 202226Z AUTO 04010KT 10SM BKN029 OVC036 15/10 A3011 RMK AO2 T01500100